Time;durP1;ratioP1;P1;durP2;ratioP2;P2;SDS_P1;SDS_P2;PMS_P1;PMS_P2;Temp;Humidity;BMP_temperature;BMP_pressure;BME280_temperature;BME280_humidity;BME280_pressure;Samples;Min_cycle;Max_cycle;Signal;HPM_P1;HPM_P2
2021/03/05 00:02:18;;;;;;;4.37;1.80;;;;;;;5.47;100.00;102930.72;1787690;77;933529;-75
2021/03/05 00:04:48;;;;;;;6.75;1.60;;;;;;;5.50;100.00;102944.61;1791482;77;934365;-76
2021/03/05 00:07:18;;;;;;;8.60;1.93;;;;;;;5.48;100.00;102946.19;1833923;76;934414;-74
2021/03/05 00:09:48;;;;;;;8.13;2.00;;;;;;;5.38;100.00;102945.70;1824167;75;934394;-77
2021/03/05 00:12:18;;;;;;;9.03;2.47;;;;;;;5.42;100.00;102949.76;1836327;76;934642;-74
2021/03/05 00:14:49;;;;;;;6.60;1.60;;;;;;;5.52;100.00;102959.59;1828120;76;934583;-77
2021/03/05 00:17:19;;;;;;;9.20;1.80;;;;;;;5.37;100.00;102955.02;1851597;75;934371;-74
2021/03/05 00:19:49;;;;;;;8.50;2.35;;;;;;;5.37;100.00;102965.18;1824192;76;933336;-75
2021/03/05 00:22:19;;;;;;;7.33;1.70;;;;;;;5.38;100.00;102973.26;1836258;76;934464;-74
2021/03/05 00:24:49;;;;;;;5.77;1.70;;;;;;;5.61;100.00;102977.66;1824318;75;934471;-75
2021/03/05 00:27:19;;;;;;;7.13;1.87;;;;;;;5.56;100.00;102973.30;1836163;76;933623;-74
2021/03/05 00:29:49;;;;;;;5.47;1.70;;;;;;;5.58;100.00;102974.78;1824180;76;933589;-74
2021/03/05 00:32:18;;;;;;;9.73;2.40;;;;;;;5.52;100.00;102971.44;1836329;76;934691;-75
2021/03/05 00:34:48;;;;;;;8.17;2.47;;;;;;;5.49;100.00;102973.23;1824232;76;934582;-77
2021/03/05 00:37:18;;;;;;;5.97;1.70;;;;;;;5.61;100.00;102972.14;1836072;76;934893;-75
2021/03/05 00:39:48;;;;;;;4.85;1.60;;;;;;;5.59;100.00;102972.88;1825688;76;934502;-75
2021/03/05 00:42:18;;;;;;;5.75;1.82;;;;;;;5.36;100.00;102968.45;1851695;75;934416;-76
2021/03/05 00:44:48;;;;;;;7.45;1.80;;;;;;;5.42;100.00;102969.05;1826694;76;933709;-76
2021/03/05 00:47:18;;;;;;;6.25;1.60;;;;;;;5.37;100.00;102971.55;1847518;76;934474;-74
2021/03/05 00:49:48;;;;;;;5.70;1.77;;;;;;;5.44;100.00;102972.44;1826598;76;934412;-76
2021/03/05 00:52:18;;;;;;;4.13;1.13;;;;;;;5.42;100.00;102951.14;1847113;76;934568;-74
2021/03/05 00:54:48;;;;;;;7.87;2.00;;;;;;;5.48;100.00;102974.27;1826805;76;934399;-75
2021/03/05 00:57:18;;;;;;;8.63;1.77;;;;;;;5.48;100.00;102964.09;1837502;76;933590;-74
2021/03/05 00:59:48;;;;;;;7.37;1.53;;;;;;;5.44;100.00;102968.31;1812835;77;934429;-76
2021/03/05 01:02:18;;;;;;;7.57;1.73;;;;;;;5.44;100.00;102972.44;1824101;76;934473;-74
2021/03/05 01:04:49;;;;;;;5.70;1.93;;;;;;;5.48;100.00;102965.48;1828612;76;934560;-76
2021/03/05 01:07:19;;;;;;;4.93;1.60;;;;;;;5.55;100.00;102962.79;1851839;75;934485;-74
2021/03/05 01:09:49;;;;;;;6.23;1.70;;;;;;;5.60;100.00;102968.56;1824318;76;934648;-76
2021/03/05 01:12:20;;;;;;;8.30;1.67;;;;;;;5.55;100.00;102964.69;1836423;76;933587;-74
2021/03/05 01:14:49;;;;;;;5.10;1.60;;;;;;;5.35;100.00;102982.42;1824056;76;934527;-74
2021/03/05 01:17:20;;;;;;;6.90;1.67;;;;;;;5.44;100.00;102978.48;1836079;76;934338;-75
2021/03/05 01:19:50;;;;;;;7.07;1.30;;;;;;;5.53;100.00;102976.42;1824262;76;934483;-75
2021/03/05 01:22:20;;;;;;;6.93;1.57;;;;;;;5.35;100.00;102985.18;1836335;76;933753;-74
2021/03/05 01:24:50;;;;;;;4.33;1.70;;;;;;;5.33;100.00;102989.53;1824285;76;934544;-76
2021/03/05 01:27:20;;;;;;;5.20;1.80;;;;;;;5.33;100.00;102995.05;1836333;76;933552;-74
2021/03/05 01:29:50;;;;;;;5.17;1.43;;;;;;;5.36;100.00;102993.78;1824161;76;934362;-75
2021/03/05 01:32:20;;;;;;;8.60;1.73;;;;;;;5.40;100.00;102991.81;1836291;76;933297;-75
2021/03/05 01:34:49;;;;;;;4.70;1.97;;;;;;;5.32;100.00;103001.59;1824382;76;934594;-75
2021/03/05 01:37:19;;;;;;;6.67;2.00;;;;;;;5.29;100.00;102997.87;1836271;76;934488;-75
2021/03/05 01:39:49;;;;;;;6.67;1.90;;;;;;;5.34;100.00;103005.55;1823961;76;934452;-75
2021/03/05 01:42:19;;;;;;;8.00;1.97;;;;;;;5.24;100.00;103008.63;1836046;76;934443;-74
2021/03/05 01:44:49;;;;;;;5.20;1.63;;;;;;;5.34;100.00;103009.16;1824134;76;934352;-76
2021/03/05 01:47:19;;;;;;;7.77;2.07;;;;;;;5.40;100.00;103008.87;1836273;76;934425;-74
2021/03/05 01:49:49;;;;;;;8.50;1.67;;;;;;;5.32;100.00;103009.87;1824423;75;933537;-76
2021/03/05 01:52:19;;;;;;;4.73;2.20;;;;;;;5.28;100.00;102999.44;1836154;76;934531;-74
2021/03/05 01:54:49;;;;;;;5.87;1.87;;;;;;;5.29;100.00;103008.89;1824320;76;934497;-76
2021/03/05 01:57:18;;;;;;;8.93;1.97;;;;;;;5.31;100.00;103012.28;1836371;76;934390;-75
2021/03/05 01:59:48;;;;;;;5.67;1.50;;;;;;;5.28;100.00;103010.45;1824251;76;934627;-77
2021/03/05 02:02:19;;;;;;;6.03;1.70;;;;;;;5.28;100.00;103014.59;1836405;75;934612;-75
2021/03/05 02:04:50;;;;;;;6.97;1.98;;;;;;;5.35;100.00;103018.25;1824232;76;934543;-76
2021/03/05 02:07:20;;;;;;;6.67;1.77;;;;;;;5.30;100.00;103023.00;1836138;76;934467;-75
2021/03/05 02:09:50;;;;;;;6.80;1.53;;;;;;;5.28;100.00;103022.34;1824245;75;934444;-75
2021/03/05 02:12:19;;;;;;;7.57;1.83;;;;;;;5.33;100.00;103030.02;1836038;76;934357;-74
2021/03/05 02:14:49;;;;;;;6.10;2.23;;;;;;;5.18;100.00;103030.62;1824413;76;933615;-75
2021/03/05 02:17:24;;;;;;;4.50;1.52;;;;;;;5.15;100.00;103038.73;1836159;76;934354;-75
2021/03/05 02:20:01;;;;;;;4.57;1.67;;;;;;;5.14;100.00;103038.39;1823986;76;934434;-76
2021/03/05 02:22:55;;;;;;;6.93;2.07;;;;;;;5.13;100.00;103042.75;1836277;76;934456;-74
2021/03/05 02:25:38;;;;;;;8.03;2.10;;;;;;;5.07;100.00;103042.13;1835818;75;934426;-77
2021/03/05 02:28:37;;;;;;;5.40;1.83;;;;;;;5.04;100.00;103046.15;1823965;76;934522;-74
2021/03/05 02:31:21;;;;;;;6.33;2.10;;;;;;;5.05;100.00;103052.81;1822953;75;934265;-74
2021/03/05 02:33:54;;;;;;;4.73;1.60;;;;;;;5.09;100.00;103048.31;1824294;76;933467;-74
2021/03/05 02:36:28;;;;;;;6.93;1.80;;;;;;;5.05;100.00;103054.20;1836297;76;934382;-74
2021/03/05 02:39:11;;;;;;;8.93;2.45;;;;;;;5.10;100.00;103048.09;1787536;76;934608;-75
2021/03/05 02:41:43;;;;;;;11.63;2.70;;;;;;;5.08;100.00;103054.34;1799034;77;932423;-75
2021/03/05 02:44:17;;;;;;;5.57;2.07;;;;;;;4.99;100.00;103051.38;1786392;77;1002701;-75
2021/03/05 02:46:47;;;;;;;6.47;1.90;;;;;;;4.99;100.00;103057.75;1799098;77;934614;-75
2021/03/05 02:49:21;;;;;;;5.77;1.80;;;;;;;4.97;100.00;103054.31;1799146;77;933389;-74
2021/03/05 02:51:53;;;;;;;9.30;2.63;;;;;;;4.96;100.00;103058.11;1787045;77;935000;-75
2021/03/05 02:54:24;;;;;;;7.47;2.20;;;;;;;5.08;100.00;103052.11;1799144;77;934540;-75
2021/03/05 02:56:56;;;;;;;4.58;1.57;;;;;;;5.05;100.00;103051.44;1787374;77;933668;-76
2021/03/05 02:59:27;;;;;;;6.43;1.87;;;;;;;5.03;100.00;103056.83;1799158;77;934669;-75
2021/03/05 03:01:58;;;;;;;8.37;2.23;;;;;;;5.01;100.00;103054.77;1787322;77;934026;-76
2021/03/05 03:04:30;;;;;;;9.57;1.87;;;;;;;4.96;100.00;103049.03;1799054;77;934412;-76
2021/03/05 03:07:01;;;;;;;5.13;1.67;;;;;;;4.98;100.00;103057.93;1787501;77;934487;-76
2021/03/05 03:09:33;;;;;;;8.73;2.10;;;;;;;4.93;100.00;103053.00;1799174;77;934539;-74
2021/03/05 03:12:04;;;;;;;5.25;1.32;;;;;;;4.93;100.00;103054.89;1787287;77;934438;-75
2021/03/05 03:14:35;;;;;;;9.83;1.60;;;;;;;4.94;100.00;103048.34;1799020;77;932555;-75
2021/03/05 03:17:08;;;;;;;7.83;2.13;;;;;;;4.88;100.00;103058.75;1787492;77;933339;-74
2021/03/05 03:19:40;;;;;;;6.23;1.60;;;;;;;4.88;100.00;103065.12;1799142;77;932496;-74
2021/03/05 03:22:09;;;;;;;3.77;1.33;;;;;;;4.96;100.00;103066.92;1787269;77;934449;-74
2021/03/05 03:24:39;;;;;;;6.95;1.40;;;;;;;4.93;100.00;103061.27;1799165;76;932615;-74
2021/03/05 03:27:10;;;;;;;4.40;1.50;;;;;;;4.94;100.00;103059.37;1787247;77;934465;-75
2021/03/05 03:29:41;;;;;;;7.00;1.97;;;;;;;4.89;100.00;103060.47;1799149;77;932577;-75
2021/03/05 03:32:12;;;;;;;5.53;1.50;;;;;;;4.98;100.00;103062.06;1787430;77;934423;-74
2021/03/05 03:34:42;;;;;;;4.80;1.60;;;;;;;5.02;100.00;103066.98;1799267;77;932496;-74
2021/03/05 03:37:14;;;;;;;4.90;1.90;;;;;;;4.93;100.00;103065.39;1787416;77;934794;-74
2021/03/05 03:39:44;;;;;;;6.23;1.53;;;;;;;4.93;100.00;103071.42;1799258;77;932627;-74
2021/03/05 03:42:14;;;;;;;6.73;1.67;;;;;;;4.96;100.00;103069.12;1799025;77;933720;-76
2021/03/05 03:44:44;;;;;;;5.50;1.67;;;;;;;4.93;100.00;103070.05;1799194;77;932481;-77
2021/03/05 03:47:32;;;;;;;7.03;1.63;;;;;;;4.95;100.00;103072.09;1717155;82;934491;-75
2021/03/05 03:50:04;;;;;;;6.28;1.50;;;;;;;4.98;100.00;103070.33;1740253;81;934595;-74
2021/03/05 03:52:37;;;;;;;5.30;1.70;;;;;;;4.86;100.00;103072.73;1751462;81;932598;-75
2021/03/05 03:55:10;;;;;;;8.67;1.70;;;;;;;4.90;100.00;103075.95;1740010;79;934295;-74
2021/03/05 03:57:42;;;;;;;3.23;1.30;;;;;;;4.86;100.00;103087.02;1751567;80;932564;-74
2021/03/05 04:00:15;;;;;;;5.70;1.60;;;;;;;4.77;100.00;103079.91;1740111;81;934395;-74
2021/03/05 04:02:49;;;;;;;5.67;1.80;;;;;;;4.70;100.00;103090.00;1751635;80;932538;-75
2021/03/05 04:05:23;;;;;;;7.60;1.50;;;;;;;4.59;100.00;103094.08;1751577;81;934612;-74
2021/03/05 04:07:55;;;;;;;3.12;1.32;;;;;;;4.42;100.00;103087.06;1739966;80;934519;-75
2021/03/05 04:10:26;;;;;;;7.67;1.47;;;;;;;4.43;100.00;103092.91;1751510;81;933821;-75
2021/03/05 04:12:57;;;;;;;5.97;1.70;;;;;;;4.35;100.00;103097.98;1740034;81;933426;-74
2021/03/05 04:15:28;;;;;;;4.20;1.67;;;;;;;4.35;100.00;103093.00;1751409;79;934487;-74
2021/03/05 04:17:58;;;;;;;8.75;1.50;;;;;;;4.31;100.00;103094.42;1739898;81;934505;-74
2021/03/05 04:20:30;;;;;;;5.87;1.43;;;;;;;4.28;100.00;103097.02;1830550;76;934661;-74
2021/03/05 04:23:00;;;;;;;7.28;1.27;;;;;;;4.24;100.00;103104.45;1824297;75;934422;-75
2021/03/05 04:25:30;;;;;;;9.23;1.87;;;;;;;4.17;100.00;103100.24;1836120;76;934347;-75
2021/03/05 04:28:00;;;;;;;5.47;1.20;;;;;;;4.19;100.00;103113.30;1824260;76;944124;-75
2021/03/05 04:30:30;;;;;;;5.43;1.47;;;;;;;4.09;100.00;103119.58;1836202;76;934367;-75
2021/03/05 04:32:59;;;;;;;8.38;1.65;;;;;;;4.21;100.00;103125.47;1824242;75;934492;-75
2021/03/05 04:35:29;;;;;;;5.07;1.20;;;;;;;4.29;100.00;103135.02;1836183;76;934396;-75
2021/03/05 04:37:59;;;;;;;7.07;1.90;;;;;;;4.41;100.00;103128.86;1824400;76;934445;-75
2021/03/05 04:40:29;;;;;;;7.30;1.70;;;;;;;4.45;100.00;103130.73;1836301;76;934359;-74
2021/03/05 04:42:59;;;;;;;2.87;1.40;;;;;;;4.49;100.00;103135.64;1824084;76;934441;-75
2021/03/05 04:45:29;;;;;;;11.00;2.27;;;;;;;4.52;100.00;103133.91;1836243;76;934687;-74
2021/03/05 04:47:59;;;;;;;5.45;1.42;;;;;;;4.48;100.00;103138.08;1824095;76;938680;-75
2021/03/05 04:50:29;;;;;;;8.20;1.93;;;;;;;4.59;100.00;103137.59;1836171;76;934433;-75
2021/03/05 04:52:58;;;;;;;3.33;1.35;;;;;;;4.54;100.00;103137.30;1824094;76;934368;-74
2021/03/05 04:55:28;;;;;;;7.43;1.80;;;;;;;4.54;100.00;103141.44;1836303;75;934437;-74
2021/03/05 04:57:58;;;;;;;5.72;2.05;;;;;;;4.62;100.00;103136.34;1824174;76;934475;-74
2021/03/05 05:00:28;;;;;;;7.37;2.27;;;;;;;4.51;100.00;103134.94;1824103;76;934521;-73
2021/03/05 05:02:58;;;;;;;5.53;1.90;;;;;;;4.38;100.00;103138.87;1824218;76;934361;-74
2021/03/05 05:05:28;;;;;;;8.40;2.57;;;;;;;4.42;100.00;103143.47;1836116;76;934457;-74
2021/03/05 05:07:58;;;;;;;5.85;1.87;;;;;;;4.28;100.00;103141.03;1824120;76;934472;-74
2021/03/05 05:10:28;;;;;;;4.70;1.47;;;;;;;4.25;100.00;103148.81;1836112;76;934620;-74
2021/03/05 05:12:58;;;;;;;6.55;1.80;;;;;;;4.08;100.00;103154.48;1824121;76;934658;-75
2021/03/05 05:15:28;;;;;;;3.83;1.97;;;;;;;4.09;100.00;103152.58;1836089;76;933376;-74
2021/03/05 05:17:58;;;;;;;4.53;1.43;;;;;;;3.97;100.00;103154.08;1824214;76;933314;-75
2021/03/05 05:20:28;;;;;;;8.53;1.77;;;;;;;3.96;100.00;103161.98;1836055;76;934500;-74
2021/03/05 05:22:57;;;;;;;6.45;1.27;;;;;;;3.87;100.00;103163.09;1824246;76;934613;-74
2021/03/05 05:25:27;;;;;;;8.53;1.83;;;;;;;3.90;100.00;103165.46;1836221;76;934352;-74
2021/03/05 05:27:57;;;;;;;5.33;1.77;;;;;;;3.74;100.00;103167.83;1824176;76;934534;-76
2021/03/05 05:30:27;;;;;;;6.43;2.13;;;;;;;3.80;100.00;103167.11;1836125;76;933628;-74
2021/03/05 05:32:57;;;;;;;5.83;1.57;;;;;;;3.88;100.00;103171.68;1824210;76;934458;-74
2021/03/05 05:35:27;;;;;;;9.10;2.00;;;;;;;3.65;100.00;103165.66;1836201;75;934645;-73
2021/03/05 05:37:56;;;;;;;2.65;2.00;;;;;;;3.53;100.00;103170.39;1824139;76;934400;-74
2021/03/05 05:40:29;;;;;;;7.42;1.52;;;;;;;3.47;100.00;103176.59;1835978;76;933358;-74
2021/03/05 05:42:58;;;;;;;7.08;2.00;;;;;;;3.49;100.00;103186.91;1824126;76;933288;-75
2021/03/05 05:45:28;;;;;;;5.43;1.80;;;;;;;3.44;100.00;103179.72;1836054;76;934449;-76
2021/03/05 05:48:01;;;;;;;5.85;1.90;;;;;;;3.50;100.00;103178.49;1824163;76;934489;-75
2021/03/05 05:50:33;;;;;;;7.40;1.50;;;;;;;3.44;100.00;103177.83;1836080;76;934488;-74
2021/03/05 05:53:05;;;;;;;7.70;1.80;;;;;;;3.60;100.00;103187.33;1824151;76;934516;-75
2021/03/05 05:55:35;;;;;;;6.23;1.90;;;;;;;3.48;100.00;103190.17;1836225;76;932762;-75
2021/03/05 05:58:06;;;;;;;6.50;2.02;;;;;;;3.42;100.00;103184.05;1824263;76;934505;-74
2021/03/05 06:00:36;;;;;;;8.97;2.27;;;;;;;3.33;100.00;103188.38;1836271;76;932586;-74
2021/03/05 06:03:09;;;;;;;6.15;1.80;;;;;;;3.27;100.00;103195.95;1824126;76;934666;-74
2021/03/05 06:05:39;;;;;;;9.60;2.30;;;;;;;3.34;100.00;103192.84;1836162;76;932713;-74
2021/03/05 06:08:09;;;;;;;6.67;2.23;;;;;;;3.32;100.00;103199.89;1824174;76;934527;-75
2021/03/05 06:10:39;;;;;;;4.23;1.53;;;;;;;3.39;100.00;103206.36;1836293;76;932558;-75
2021/03/05 06:13:09;;;;;;;5.73;1.90;;;;;;;3.31;100.00;103198.16;1824215;76;934514;-75
2021/03/05 06:15:39;;;;;;;8.47;1.87;;;;;;;3.24;100.00;103210.06;1836131;75;932394;-75
2021/03/05 06:18:14;;;;;;;5.37;1.40;;;;;;;3.25;100.00;103212.64;1824243;76;934427;-75
2021/03/05 06:20:47;;;;;;;9.87;2.93;;;;;;;3.25;100.00;103211.27;1796783;77;931596;-74
2021/03/05 06:23:17;;;;;;;5.67;1.90;;;;;;;3.27;100.00;103209.17;1799119;77;934370;-75
2021/03/05 06:25:47;;;;;;;7.83;1.60;;;;;;;3.40;100.00;103214.09;1799351;77;932582;-74
2021/03/05 06:28:18;;;;;;;8.67;1.73;;;;;;;3.21;100.00;103210.73;1799168;77;934360;-75
2021/03/05 06:30:49;;;;;;;9.63;1.97;;;;;;;3.30;100.00;103216.19;1790060;77;934713;-77
2021/03/05 06:33:45;;;;;;;9.70;2.53;;;;;;;3.08;100.00;103198.64;1796541;77;934470;-76
2021/03/05 06:36:21;;;;;;;5.20;1.63;;;;;;;3.26;100.00;103234.92;1796232;77;934883;-74
2021/03/05 06:38:51;;;;;;;5.57;1.43;;;;;;;3.18;100.00;103228.09;1757828;79;934510;-74
2021/03/05 06:41:26;;;;;;;6.30;1.57;;;;;;;3.10;100.00;103235.00;1799096;79;934480;-75
2021/03/05 06:43:57;;;;;;;9.00;1.90;;;;;;;3.08;100.00;103235.17;1787181;79;934442;-75
2021/03/05 06:46:38;;;;;;;7.00;1.50;;;;;;;2.98;100.00;103235.91;1799065;79;934747;-75
2021/03/05 06:49:10;;;;;;;5.80;1.63;;;;;;;3.04;100.00;103240.67;1787311;77;934551;-74
2021/03/05 06:51:41;;;;;;;10.50;2.30;;;;;;;3.01;100.00;103242.92;1798952;79;932644;-75
2021/03/05 06:54:15;;;;;;;8.77;1.77;;;;;;;3.21;100.00;103251.94;1786611;78;936506;-75
2021/03/05 06:56:50;;;;;;;7.33;2.17;;;;;;;3.05;100.00;103255.27;1799001;78;932489;-75
2021/03/05 06:59:21;;;;;;;8.37;1.93;;;;;;;3.11;100.00;103255.94;1798925;78;934715;-75
2021/03/05 07:01:54;;;;;;;7.67;2.20;;;;;;;3.19;100.00;103265.01;1787222;79;933849;-77
2021/03/05 07:04:25;;;;;;;6.80;1.60;;;;;;;3.20;100.00;103263.98;1798742;77;933560;-77
2021/03/05 07:07:06;;;;;;;6.40;2.35;;;;;;;3.10;100.00;103260.58;1787387;79;933662;-75
2021/03/05 07:09:39;;;;;;;8.38;1.65;;;;;;;3.21;100.00;103274.42;1798956;77;931534;-75
2021/03/05 07:12:10;;;;;;;6.00;2.20;;;;;;;3.29;100.00;103271.67;1787394;77;933549;-75
2021/03/05 07:14:42;;;;;;;8.85;2.47;;;;;;;3.28;100.00;103281.45;1798850;78;931262;-76
2021/03/05 07:17:13;;;;;;;8.80;3.00;;;;;;;3.35;100.00;103285.19;1787240;79;933229;-77
2021/03/05 07:19:43;;;;;;;6.97;1.80;;;;;;;3.38;100.00;103285.69;1799007;78;931739;-74
2021/03/05 07:22:14;;;;;;;6.73;1.60;;;;;;;3.43;100.00;103283.78;1799047;79;933285;-74
2021/03/05 07:24:46;;;;;;;7.90;1.90;;;;;;;3.48;100.00;103282.73;1798967;79;932409;-74
2021/03/05 07:27:17;;;;;;;8.13;1.90;;;;;;;3.63;100.00;103294.70;1799241;77;933534;-76
2021/03/05 07:29:48;;;;;;;11.27;2.33;;;;;;;3.65;100.00;103293.47;1799113;77;932639;-75
2021/03/05 07:32:20;;;;;;;11.37;2.33;;;;;;;3.58;100.00;103299.87;1799008;78;935528;-74
2021/03/05 07:34:54;;;;;;;6.43;1.57;;;;;;;3.66;100.00;103298.45;1787250;78;936645;-76
2021/03/05 07:37:27;;;;;;;7.83;2.20;;;;;;;3.80;100.00;103306.45;1798941;77;933454;-77
2021/03/05 07:39:59;;;;;;;6.03;2.37;;;;;;;3.82;100.00;103301.61;1787418;77;934496;-76
2021/03/05 07:42:31;;;;;;;6.50;1.93;;;;;;;3.73;100.00;103304.06;1798959;79;934382;-76
2021/03/05 07:45:02;;;;;;;11.73;2.20;;;;;;;3.83;100.00;103310.20;1787231;79;934413;-75
2021/03/05 07:47:34;;;;;;;8.83;1.90;;;;;;;3.86;100.00;103305.72;1799017;77;935240;-76
2021/03/05 07:50:07;;;;;;;6.10;2.15;;;;;;;3.92;100.00;103307.75;1787384;78;934479;-75
2021/03/05 07:52:38;;;;;;;7.83;2.57;;;;;;;4.02;100.00;103307.84;1798900;79;931550;-75
2021/03/05 07:55:09;;;;;;;7.53;2.10;;;;;;;4.09;100.00;103311.59;1787201;78;934406;-76
2021/03/05 07:57:47;;;;;;;8.23;2.03;;;;;;;4.23;100.00;103314.08;1799049;79;931308;-77
2021/03/05 08:00:47;;;;;;;6.50;2.30;;;;;;;4.18;100.00;103312.39;1799077;77;934553;-77
2021/03/05 08:03:18;;;;;;;9.10;1.80;;;;;;;4.29;100.00;103302.33;1798869;79;933359;-76
2021/03/05 08:05:50;;;;;;;9.20;1.90;;;;;;;4.73;100.00;103316.75;1762653;80;933811;-78
2021/03/05 08:08:25;;;;;;;5.57;2.00;;;;;;;4.85;100.00;103302.86;1837845;76;934693;-76
2021/03/05 08:10:57;;;;;;;7.08;2.00;;;;;;;4.99;100.00;103308.40;1824243;76;934443;-77
2021/03/05 08:13:54;;;;;;;11.20;3.00;;;;;;;5.31;100.00;103301.64;1836225;76;933390;-77
2021/03/05 08:16:53;;;;;;;6.97;1.63;;;;;;;5.48;100.00;103303.67;1834702;75;935757;-76
2021/03/05 08:19:49;;;;;;;7.53;1.77;;;;;;;5.52;100.00;103298.66;1836149;76;934409;-76
2021/03/05 08:22:20;;;;;;;7.53;1.40;;;;;;;5.59;100.00;103276.16;1836227;76;934373;-76
2021/03/05 08:24:51;;;;;;;4.10;1.50;;;;;;;5.62;100.00;103273.00;1824509;76;934727;-75
2021/03/05 08:27:24;;;;;;;7.17;1.43;;;;;;;5.67;100.00;103274.14;1836329;76;933231;-77
2021/03/05 08:30:03;;;;;;;5.95;1.90;;;;;;;5.72;100.00;103270.28;1822685;76;933427;-76
2021/03/05 08:32:53;;;;;;;6.22;1.70;;;;;;;5.72;100.00;103264.77;1836261;76;932325;-77
2021/03/05 08:35:46;;;;;;;5.62;1.52;;;;;;;5.69;100.00;103256.03;1836354;76;934570;-75
2021/03/05 08:38:21;;;;;;;9.13;1.70;;;;;;;5.78;100.00;103257.59;1836349;76;934377;-76
2021/03/05 08:41:07;;;;;;;5.60;1.93;;;;;;;5.92;100.00;103250.70;1824274;75;934384;-76
2021/03/05 08:43:38;;;;;;;8.73;1.90;;;;;;;5.89;100.00;103249.72;1836453;76;931423;-76
2021/03/05 08:46:10;;;;;;;5.47;1.37;;;;;;;5.95;100.00;103239.78;1824248;76;934532;-76
2021/03/05 08:48:46;;;;;;;5.77;1.57;;;;;;;5.89;100.00;103246.10;1836168;76;932491;-74
2021/03/05 08:51:19;;;;;;;6.43;1.60;;;;;;;6.06;100.00;103239.28;1799254;77;934485;-76
2021/03/05 08:53:52;;;;;;;7.73;1.20;;;;;;;6.31;100.00;103231.44;1787508;77;934619;-76
2021/03/05 08:56:27;;;;;;;6.70;1.57;;;;;;;6.44;100.00;103227.94;1799372;77;933697;-75
2021/03/05 08:59:01;;;;;;;4.03;1.40;;;;;;;6.23;100.00;103221.92;1787647;77;934371;-75
2021/03/05 09:01:34;;;;;;;3.53;1.10;;;;;;;6.12;100.00;103223.30;1799495;77;934656;-75
2021/03/05 09:04:14;;;;;;;6.75;1.17;;;;;;;6.01;100.00;103218.32;1787529;77;934508;-75
2021/03/05 09:06:55;;;;;;;5.63;1.50;;;;;;;6.07;100.00;103216.69;1799333;77;932800;-76
2021/03/05 09:09:27;;;;;;;6.77;1.70;;;;;;;6.14;100.00;103219.83;1799227;77;934729;-75
2021/03/05 09:12:12;;;;;;;2.37;1.07;;;;;;;6.14;100.00;103225.34;1787493;77;942127;-74
2021/03/05 09:14:42;;;;;;;7.07;1.50;;;;;;;6.19;100.00;103226.99;1799224;77;931425;-74
2021/03/05 09:17:13;;;;;;;3.63;1.20;;;;;;;6.20;100.00;103230.61;1787334;77;934400;-75
2021/03/05 09:19:46;;;;;;;3.63;1.20;;;;;;;6.19;100.00;103228.38;1799224;77;932532;-75
2021/03/05 09:22:18;;;;;;;4.70;1.40;;;;;;;6.13;100.00;103231.91;1799148;77;933284;-74
2021/03/05 09:24:57;;;;;;;4.20;1.00;;;;;;;6.28;100.00;103231.33;1798518;76;933410;-76
2021/03/05 09:27:31;;;;;;;7.47;1.73;;;;;;;6.23;100.00;103231.58;1796818;77;933224;-75
2021/03/05 09:30:03;;;;;;;5.93;1.50;;;;;;;6.15;100.00;103240.00;1787230;78;933641;-75
2021/03/05 09:32:36;;;;;;;4.93;1.67;;;;;;;6.12;100.00;103250.89;1799289;77;932485;-74
2021/03/05 09:35:08;;;;;;;2.80;1.10;;;;;;;6.14;100.00;103250.70;1786390;77;934277;-75
2021/03/05 09:37:38;;;;;;;10.73;3.90;;;;;;;6.17;100.00;103251.16;1769538;80;931482;-74
2021/03/05 09:40:11;;;;;;;4.97;1.43;;;;;;;6.21;100.00;103253.85;1787234;77;935535;-74
2021/03/05 09:42:55;;;;;;;2.87;1.10;;;;;;;6.34;100.00;103255.36;1799392;77;932557;-74
2021/03/05 09:45:42;;;;;;;3.87;1.13;;;;;;;6.32;100.00;103254.72;1799283;79;933700;-76
2021/03/05 09:48:15;;;;;;;4.47;1.20;;;;;;;6.30;100.00;103251.81;1787336;79;954700;-75
2021/03/05 09:50:45;;;;;;;2.67;1.13;;;;;;;6.33;100.00;103251.44;1799714;78;932630;-76
2021/03/05 09:53:25;;;;;;;3.67;1.30;;;;;;;6.34;100.00;103253.12;1799346;77;933796;-76
2021/03/05 09:55:57;;;;;;;3.27;1.17;;;;;;;6.43;100.00;103256.06;1787548;78;934389;-75
2021/03/05 09:58:27;;;;;;;3.33;1.00;;;;;;;6.49;100.00;103254.42;1799212;79;934585;-74
2021/03/05 10:00:58;;;;;;;3.83;1.10;;;;;;;6.54;100.00;103248.64;1787510;78;933528;-74
2021/03/05 10:03:29;;;;;;;2.57;1.00;;;;;;;6.52;100.00;103259.02;1799055;78;934735;-75
2021/03/05 10:05:59;;;;;;;3.10;0.80;;;;;;;6.53;100.00;103253.83;1787352;78;934505;-76
2021/03/05 10:08:30;;;;;;;3.37;0.90;;;;;;;6.57;100.00;103251.00;1799096;79;934646;-76
2021/03/05 10:11:06;;;;;;;5.15;0.70;;;;;;;6.62;100.00;103247.11;1787457;77;934515;-75
2021/03/05 10:13:51;;;;;;;5.57;1.17;;;;;;;6.67;100.00;103247.89;1799139;79;932287;-74
2021/03/05 10:16:27;;;;;;;3.37;1.17;;;;;;;6.52;100.00;103245.73;1799197;78;934509;-74
2021/03/05 10:19:03;;;;;;;5.07;0.77;;;;;;;6.55;100.00;103246.70;1787441;79;933572;-76
2021/03/05 10:21:34;;;;;;;4.13;1.00;;;;;;;6.46;100.00;103247.94;1799501;77;934469;-74
2021/03/05 10:24:09;;;;;;;4.28;0.90;;;;;;;6.48;100.00;103244.43;1787654;78;934507;-73
2021/03/05 10:27:10;;;;;;;4.17;1.10;;;;;;;6.39;100.00;103246.48;1799400;78;932834;-74
2021/03/05 10:29:13;;;;;;;3.87;0.97;;;;;;;6.43;100.00;103251.92;1799424;78;934720;-74
2021/03/05 10:31:48;;;;;;;1.63;0.53;;;;;;;6.52;100.00;103247.11;1799192;78;932551;-73
2021/03/05 10:34:27;;;;;;;1.93;0.90;;;;;;;6.49;100.00;103251.14;1799240;78;934614;-74
2021/03/05 10:37:00;;;;;;;3.12;0.80;;;;;;;6.49;100.00;103250.28;1787635;78;934659;-73
2021/03/05 10:39:32;;;;;;;2.87;0.80;;;;;;;6.51;100.00;103250.92;1799309;78;933807;-73
2021/03/05 10:42:03;;;;;;;3.12;0.90;;;;;;;6.57;100.00;103256.52;1787470;77;934768;-73
2021/03/05 10:44:34;;;;;;;2.57;1.10;;;;;;;6.48;100.00;103260.47;1799261;77;932555;-74
2021/03/05 10:47:07;;;;;;;3.23;0.80;;;;;;;6.46;100.00;103247.94;1787468;79;934477;-73
2021/03/05 10:49:38;;;;;;;5.20;0.90;;;;;;;6.46;100.00;103254.84;1799151;79;932588;-73
2021/03/05 10:52:11;;;;;;;2.63;0.87;;;;;;;6.53;100.00;103263.50;1787181;78;933792;-73
2021/03/05 10:54:42;;;;;;;3.87;1.00;;;;;;;6.43;100.00;103262.11;1799086;78;931595;-73
2021/03/05 10:57:12;;;;;;;1.30;0.70;;;;;;;6.50;100.00;103267.19;1787093;78;933553;-73
2021/03/05 10:59:43;;;;;;;2.03;1.00;;;;;;;6.65;100.00;103263.80;1799174;78;932652;-73
2021/03/05 11:02:13;;;;;;;5.43;1.00;;;;;;;6.54;100.00;103262.97;1798923;77;933730;-73
2021/03/05 11:04:43;;;;;;;2.33;0.73;;;;;;;6.57;100.00;103265.33;1799081;78;932624;-74
2021/03/05 11:07:13;;;;;;;3.90;1.10;;;;;;;6.54;100.00;103265.21;1799228;79;934604;-74
2021/03/05 11:09:43;;;;;;;1.87;0.70;;;;;;;6.67;100.00;103262.56;1799135;79;932587;-73
2021/03/05 11:12:14;;;;;;;4.03;1.00;;;;;;;6.63;100.00;103263.98;1787270;78;937146;-75
2021/03/05 11:14:44;;;;;;;2.57;0.70;;;;;;;6.72;100.00;103269.69;1799246;79;932522;-74
2021/03/05 11:17:14;;;;;;;3.17;1.20;;;;;;;6.80;100.00;103264.01;1799204;79;933310;-74
2021/03/05 11:19:44;;;;;;;6.37;1.00;;;;;;;6.74;100.00;103268.13;1799266;79;932608;-74
2021/03/05 11:22:14;;;;;;;2.27;0.80;;;;;;;6.74;100.00;103275.03;1799250;79;934533;-74
2021/03/05 11:24:44;;;;;;;1.90;0.87;;;;;;;6.69;100.00;103275.62;1799234;79;932552;-73
2021/03/05 11:27:14;;;;;;;4.13;1.00;;;;;;;6.63;100.00;103274.20;1799146;78;934443;-73
2021/03/05 11:29:44;;;;;;;4.40;1.10;;;;;;;6.63;100.00;103281.94;1799534;79;932549;-74
2021/03/05 11:32:15;;;;;;;3.87;0.90;;;;;;;6.78;100.00;103283.23;1799275;78;934623;-72
2021/03/05 11:34:45;;;;;;;2.67;0.80;;;;;;;6.90;100.00;103283.52;1799280;79;932595;-73
2021/03/05 11:37:15;;;;;;;4.87;0.90;;;;;;;7.00;100.00;103282.66;1799207;79;934462;-73
2021/03/05 11:39:45;;;;;;;3.57;0.70;;;;;;;6.98;100.00;103275.08;1799434;78;932703;-73
2021/03/05 11:42:15;;;;;;;2.97;0.87;;;;;;;7.11;100.00;103281.55;1799257;78;934708;-73